Time;durP1;ratioP1;P1;durP2;ratioP2;P2;SDS_P1;SDS_P2;PMS_P1;PMS_P2;Temp;Humidity;BMP_temperature;BMP_pressure;BME280_temperature;BME280_humidity;BME280_pressure;Samples;Min_cycle;Max_cycle;Signal;HPM_P1;HPM_P2
2022/06/03 00:01:33;;;;;;;13.10;12.40;;;21.50;50.80;;;;;;5049320;28;20044;-79
2022/06/03 00:04:17;;;;;;;12.32;11.63;;;21.60;50.10;;;;;;5046718;28;20495;-79
2022/06/03 00:07:07;;;;;;;12.73;11.93;;;21.60;50.00;;;;;;5047327;28;20033;-79
2022/06/03 00:09:52;;;;;;;12.52;11.93;;;21.40;50.20;;;;;;5043555;28;20033;-79
2022/06/03 00:12:21;;;;;;;12.82;11.90;;;21.50;50.30;;;;;;5049475;28;20055;-79
2022/06/03 00:14:59;;;;;;;12.70;11.73;;;21.30;50.50;;;;;;5050734;28;20057;-79
2022/06/03 00:17:25;;;;;;;13.13;12.32;;;21.30;51.20;;;;;;5048239;28;20048;-79
2022/06/03 00:20:28;;;;;;;12.63;11.90;;;21.30;50.60;;;;;;5048573;28;20033;-79
2022/06/03 00:23:24;;;;;;;13.07;11.88;;;21.30;50.70;;;;;;5048380;28;20033;-79
2022/06/03 00:26:27;;;;;;;12.05;11.35;;;21.20;51.00;;;;;;4986817;28;20493;-79
2022/06/03 00:28:59;;;;;;;12.73;11.88;;;21.10;51.10;;;;;;4973393;28;20030;-79
2022/06/03 00:32:02;;;;;;;12.43;11.63;;;21.10;51.00;;;;;;4986243;28;20042;-79
2022/06/03 00:34:43;;;;;;;12.57;11.77;;;21.10;51.20;;;;;;4986002;28;20686;-79
2022/06/03 00:37:31;;;;;;;12.07;11.38;;;21.30;50.90;;;;;;4986310;28;20070;-79
2022/06/03 00:40:12;;;;;;;12.48;11.70;;;21.10;51.10;;;;;;4987414;28;20401;-79
2022/06/03 00:42:58;;;;;;;13.38;12.30;;;21.10;51.30;;;;;;4986359;28;20484;-79
2022/06/03 00:45:30;;;;;;;12.88;11.88;;;21.10;51.40;;;;;;4988524;28;20038;-79
2022/06/03 00:48:14;;;;;;;12.48;11.68;;;21.10;51.20;;;;;;4986632;28;20038;-79
2022/06/03 00:50:59;;;;;;;12.50;11.73;;;21.00;51.40;;;;;;4985760;28;20046;-79
2022/06/03 00:54:00;;;;;;;12.48;11.68;;;21.10;51.10;;;;;;4986240;28;20090;-79
2022/06/03 00:56:26;;;;;;;12.40;11.50;;;21.10;51.30;;;;;;4984043;28;20054;-79
2022/06/03 00:59:14;;;;;;;12.25;11.45;;;21.20;51.00;;;;;;4986313;28;20046;-79
2022/06/03 01:02:07;;;;;;;12.07;11.35;;;21.10;51.10;;;;;;4985469;28;20038;-79
2022/06/03 01:04:52;;;;;;;12.20;11.32;;;21.00;51.60;;;;;;5036143;28;20029;-79
2022/06/03 01:07:56;;;;;;;11.90;11.18;;;21.00;51.60;;;;;;5033620;28;20097;-79
2022/06/03 01:10:58;;;;;;;12.48;11.55;;;20.90;51.70;;;;;;4972698;28;20046;-79
2022/06/03 01:13:24;;;;;;;12.02;11.23;;;20.80;52.00;;;;;;4988255;28;20038;-79
2022/06/03 01:16:11;;;;;;;12.23;11.35;;;20.80;52.00;;;;;;4987760;28;20483;-79
2022/06/03 01:18:50;;;;;;;11.75;11.05;;;20.70;52.10;;;;;;4985388;28;20408;-79
2022/06/03 01:21:31;;;;;;;12.10;11.30;;;20.60;52.30;;;;;;4988543;28;20053;-79
2022/06/03 01:24:21;;;;;;;11.90;11.20;;;20.70;52.50;;;;;;4969803;28;20073;-79
2022/06/03 01:27:33;;;;;;;12.00;11.20;;;20.70;52.30;;;;;;4985800;28;20110;-79
2022/06/03 01:30:17;;;;;;;11.98;11.18;;;20.70;52.50;;;;;;4985117;28;20034;-79
2022/06/03 01:32:58;;;;;;;11.80;11.00;;;20.50;52.80;;;;;;4971361;28;20038;-79
2022/06/03 01:35:51;;;;;;;11.77;10.88;;;20.50;53.00;;;;;;4984767;28;20049;-79
2022/06/03 01:38:28;;;;;;;11.50;10.80;;;20.50;53.00;;;;;;4985372;28;20173;-79
2022/06/03 01:41:13;;;;;;;11.57;10.88;;;20.50;52.90;;;;;;4968838;28;20035;-79
2022/06/03 01:44:07;;;;;;;12.18;11.38;;;20.50;52.90;;;;;;4956769;28;20155;-80
2022/06/03 01:46:39;;;;;;;12.32;11.35;;;20.50;53.00;;;;;;4985188;28;20041;-79
2022/06/03 01:49:20;;;;;;;12.48;11.63;;;20.50;53.10;;;;;;5045689;28;20020;-79
2022/06/03 01:52:13;;;;;;;12.13;11.43;;;20.50;53.30;;;;;;5045851;28;20574;-79
2022/06/03 01:55:20;;;;;;;12.05;11.35;;;20.50;53.10;;;;;;5047113;28;20041;-79
2022/06/03 01:58:20;;;;;;;12.20;11.50;;;20.50;53.20;;;;;;4985361;28;20058;-79
2022/06/03 02:00:55;;;;;;;12.30;11.40;;;20.50;53.10;;;;;;4971467;28;20041;-79
2022/06/03 02:03:42;;;;;;;12.70;11.55;;;20.60;53.00;;;;;;4988857;28;20057;-79
2022/06/03 02:06:26;;;;;;;12.25;11.55;;;20.50;53.00;;;;;;4989084;28;20030;-79
2022/06/03 02:09:20;;;;;;;12.48;11.68;;;20.60;53.00;;;;;;4985629;28;20043;-79
2022/06/03 02:12:27;;;;;;;12.18;11.48;;;20.60;53.00;;;;;;4972264;28;20030;-79
2022/06/03 02:15:11;;;;;;;12.10;11.38;;;20.40;53.40;;;;;;4985481;28;20046;-79
2022/06/03 02:17:37;;;;;;;12.23;11.48;;;20.30;53.70;;;;;;4973480;28;20106;-79
2022/06/03 02:20:34;;;;;;;12.75;12.05;;;20.40;53.60;;;;;;4985462;28;20385;-79
2022/06/03 02:23:26;;;;;;;12.57;11.85;;;20.50;53.30;;;;;;4971488;28;20051;-79
2022/06/03 02:26:26;;;;;;;12.82;11.93;;;20.60;53.20;;;;;;4977875;28;20042;-79
2022/06/03 02:32:24;;;;;;;12.38;11.43;;;20.50;53.50;;;;;;4986730;28;20519;-79
2022/06/03 02:35:14;;;;;;;12.15;11.27;;;20.40;53.60;;;;;;5004988;28;20056;-79
2022/06/03 02:38:02;;;;;;;11.97;11.27;;;20.40;53.60;;;;;;5045591;28;20048;-79
2022/06/03 02:40:52;;;;;;;12.00;11.18;;;20.30;53.80;;;;;;5045860;28;20025;-78
2022/06/03 02:43:25;;;;;;;12.35;11.45;;;20.10;54.30;;;;;;5031698;28;20495;-79
2022/06/03 02:45:54;;;;;;;12.18;11.20;;;20.10;54.40;;;;;;5040143;28;20048;-79
2022/06/03 02:48:45;;;;;;;12.80;11.90;;;20.10;54.40;;;;;;5031974;28;20033;-79
2022/06/03 02:51:18;;;;;;;12.40;11.57;;;20.20;54.20;;;;;;5033374;28;20033;-79
2022/06/03 02:54:03;;;;;;;12.43;11.68;;;20.30;54.10;;;;;;5024921;28;20041;-79
2022/06/03 02:56:47;;;;;;;12.65;11.60;;;20.50;53.90;;;;;;5031778;28;20049;-79
2022/06/03 02:59:46;;;;;;;13.20;11.85;;;20.60;53.20;;;;;;5025031;28;20029;-79
2022/06/03 03:02:21;;;;;;;11.90;11.20;;;20.70;53.00;;;;;;5024050;28;20041;-79
2022/06/03 03:05:05;;;;;;;12.43;11.23;;;20.70;53.00;;;;;;4997084;28;20045;-79
2022/06/03 03:07:58;;;;;;;12.20;11.45;;;20.50;53.40;;;;;;5030511;28;20037;-79
2022/06/03 03:11:03;;;;;;;11.73;10.93;;;20.30;53.70;;;;;;5015830;28;20021;-79
2022/06/03 03:14:07;;;;;;;11.90;11.10;;;20.10;54.30;;;;;;5013168;28;20068;-79
2022/06/03 03:16:41;;;;;;;12.65;11.77;;;20.00;54.60;;;;;;5017466;28;20521;-79
2022/06/03 03:19:33;;;;;;;11.93;11.13;;;20.00;54.80;;;;;;5014664;28;20057;-79
2022/06/03 03:22:29;;;;;;;11.80;11.13;;;19.90;55.00;;;;;;5030467;28;20474;-79
2022/06/03 03:25:33;;;;;;;11.88;11.13;;;20.00;54.80;;;;;;5011992;28;20026;-79
2022/06/03 03:28:17;;;;;;;12.48;11.70;;;20.10;54.60;;;;;;5030468;28;20033;-79
2022/06/03 03:31:16;;;;;;;12.68;11.68;;;20.30;54.30;;;;;;5028768;28;20026;-79
2022/06/03 03:34:22;;;;;;;12.40;11.60;;;20.30;54.20;;;;;;5029541;28;20057;-79
2022/06/03 03:37:09;;;;;;;12.75;11.60;;;20.30;54.30;;;;;;5029636;28;20026;-79
2022/06/03 03:39:42;;;;;;;12.68;11.68;;;20.40;54.00;;;;;;5033665;28;20029;-79
2022/06/03 03:42:17;;;;;;;12.40;11.70;;;20.20;54.40;;;;;;5030644;28;20033;-79
2022/06/03 03:44:55;;;;;;;11.88;11.18;;;20.10;54.70;;;;;;5029483;28;20033;-79
2022/06/03 03:47:49;;;;;;;11.77;11.07;;;20.00;54.90;;;;;;5029239;28;20511;-79
2022/06/03 03:50:30;;;;;;;11.85;11.10;;;20.00;55.20;;;;;;5029672;28;20029;-79
2022/06/03 03:53:19;;;;;;;;;;;19.80;55.60;;;;;;5030110;28;20034;-79
2022/06/03 03:55:59;;;;;;;12.00;11.20;;;19.60;56.10;;;;;;4987575;28;20468;-79
2022/06/03 03:58:39;;;;;;;11.82;10.95;;;19.70;56.10;;;;;;4984508;28;20429;-79
2022/06/03 04:01:17;;;;;;;11.77;10.80;;;19.70;55.80;;;;;;4995068;28;20026;-79
2022/06/03 04:04:16;;;;;;;12.05;11.35;;;19.70;55.80;;;;;;5006897;28;20041;-79
2022/06/03 04:07:11;;;;;;;11.55;10.75;;;19.80;55.60;;;;;;5006752;28;20049;-79
2022/06/03 04:09:46;;;;;;;11.60;10.90;;;19.60;56.00;;;;;;4986688;28;20041;-79
2022/06/03 04:12:34;;;;;;;11.27;10.50;;;19.50;57.00;;;;;;4990303;28;20040;-79
2022/06/03 04:15:25;;;;;;;11.32;10.63;;;19.40;56.90;;;;;;5009048;28;20073;-78
2022/06/03 04:17:54;;;;;;;11.93;10.80;;;19.20;57.20;;;;;;5006188;28;20049;-79
2022/06/03 04:20:37;;;;;;;11.75;11.00;;;19.10;57.20;;;;;;5006670;28;20539;-79
2022/06/03 04:23:22;;;;;;;11.90;10.68;;;19.10;57.70;;;;;;5002610;28;20041;-79
2022/06/03 04:26:22;;;;;;;11.35;10.68;;;19.20;57.50;;;;;;4972527;28;20042;-79
2022/06/03 04:29:38;;;;;;;11.30;10.70;;;19.20;57.20;;;;;;4996381;28;20173;-79
2022/06/03 04:32:04;;;;;;;11.50;10.68;;;19.20;57.50;;;;;;5006800;28;20081;-79
2022/06/03 04:34:43;;;;;;;11.68;10.98;;;19.40;56.90;;;;;;5016147;28;20034;-79
2022/06/03 04:37:40;;;;;;;11.45;10.65;;;19.50;56.70;;;;;;5028235;28;20041;-79
2022/06/03 04:40:27;;;;;;;11.48;10.48;;;19.50;56.70;;;;;;5013562;28;20369;-79
2022/06/03 04:43:12;;;;;;;12.50;10.90;;;19.30;57.00;;;;;;5028686;28;20502;-79
2022/06/03 04:45:47;;;;;;;11.55;10.85;;;19.20;57.10;;;;;;5027725;28;20041;-78
2022/06/03 04:48:31;;;;;;;11.60;10.90;;;19.20;57.20;;;;;;5031334;28;20033;-79
2022/06/03 04:51:22;;;;;;;11.55;10.80;;;19.20;57.30;;;;;;5028290;28;20033;-79
2022/06/03 04:54:20;;;;;;;11.98;11.20;;;19.30;57.10;;;;;;5027079;28;20095;-79
2022/06/03 04:56:47;;;;;;;11.77;11.07;;;19.30;57.20;;;;;;5029537;28;20498;-79
2022/06/03 04:59:50;;;;;;;11.82;11.02;;;19.30;57.10;;;;;;5027911;28;20444;-79
2022/06/03 05:02:19;;;;;;;11.70;10.90;;;19.40;57.10;;;;;;5027575;28;20398;-79
2022/06/03 05:05:12;;;;;;;12.18;11.18;;;19.30;57.20;;;;;;5028048;28;20029;-79
2022/06/03 05:08:22;;;;;;;12.27;11.13;;;19.20;57.40;;;;;;5027879;28;20041;-79
2022/06/03 05:11:07;;;;;;;11.38;10.75;;;19.30;57.30;;;;;;4957835;28;20058;-79
2022/06/03 05:13:51;;;;;;;11.32;10.73;;;19.40;57.10;;;;;;4957111;28;20051;-79
2022/06/03 05:16:45;;;;;;;11.85;11.15;;;19.50;56.80;;;;;;4966770;28;20039;-79
2022/06/03 05:19:22;;;;;;;12.30;11.40;;;19.50;56.90;;;;;;4969336;28;20043;-79
2022/06/03 05:22:10;;;;;;;12.52;11.70;;;19.30;57.20;;;;;;4954096;28;20054;-79
2022/06/03 05:25:02;;;;;;;12.18;11.27;;;19.10;57.70;;;;;;4950275;28;20035;-79
2022/06/03 05:27:56;;;;;;;11.73;10.90;;;19.10;57.70;;;;;;4952053;28;20053;-79
2022/06/03 05:30:59;;;;;;;11.40;10.70;;;19.10;57.90;;;;;;4953139;28;20046;-79
2022/06/03 05:33:49;;;;;;;12.07;11.07;;;19.00;58.30;;;;;;4949706;29;20073;-79
2022/06/03 05:36:33;;;;;;;11.70;10.80;;;19.10;58.00;;;;;;4969716;28;20038;-79
2022/06/03 05:39:30;;;;;;;12.35;11.48;;;19.10;58.20;;;;;;4946571;29;20045;-79
2022/06/03 05:42:27;;;;;;;12.25;11.25;;;19.00;58.40;;;;;;4946831;28;20046;-79
2022/06/03 05:45:31;;;;;;;13.00;11.68;;;19.00;58.40;;;;;;4947224;29;20042;-79
2022/06/03 05:48:04;;;;;;;12.20;11.50;;;19.00;58.30;;;;;;5023615;28;20037;-79
2022/06/03 05:50:38;;;;;;;12.10;11.30;;;19.10;58.40;;;;;;5030548;28;20407;-79
2022/06/03 05:53:19;;;;;;;12.13;11.32;;;19.10;58.30;;;;;;5030510;28;20036;-79
2022/06/03 05:56:04;;;;;;;13.05;11.88;;;19.10;58.40;;;;;;5030286;28;20036;-78
2022/06/03 05:58:51;;;;;;;12.55;11.63;;;19.00;58.70;;;;;;5030118;28;20064;-79
2022/06/03 06:01:17;;;;;;;15.13;11.48;;;18.90;58.90;;;;;;5012221;28;20030;-79
2022/06/03 06:04:04;;;;;;;11.98;10.80;;;18.80;59.10;;;;;;5013570;28;20041;-79
2022/06/03 06:07:14;;;;;;;11.73;10.90;;;18.80;59.30;;;;;;5015283;28;20037;-79
2022/06/03 06:09:55;;;;;;;12.35;10.88;;;18.70;59.60;;;;;;4984474;28;20405;-79
2022/06/03 06:12:35;;;;;;;12.10;11.30;;;18.80;59.30;;;;;;4975568;28;20038;-79
2022/06/03 06:15:27;;;;;;;11.80;11.00;;;18.90;59.00;;;;;;4983423;28;20057;-79
2022/06/03 06:17:56;;;;;;;11.63;10.70;;;19.00;58.90;;;;;;5006410;28;20049;-79
2022/06/03 06:20:29;;;;;;;12.23;11.23;;;19.00;58.70;;;;;;4990116;28;20041;-79
2022/06/03 06:23:02;;;;;;;12.30;11.02;;;18.90;59.00;;;;;;5006170;28;20435;-79
2022/06/03 06:25:37;;;;;;;12.00;11.20;;;19.10;58.80;;;;;;4998022;28;20041;-79
2022/06/03 06:28:19;;;;;;;12.73;11.52;;;19.20;58.20;;;;;;4998616;28;20041;-79
2022/06/03 06:31:29;;;;;;;11.95;11.20;;;19.20;58.10;;;;;;5012560;28;20033;-78
2022/06/03 06:34:31;;;;;;;11.80;11.07;;;19.20;58.40;;;;;;5024780;28;20411;-79
2022/06/03 06:37:01;;;;;;;12.60;11.23;;;19.40;58.20;;;;;;4972322;28;20045;-79
2022/06/03 06:39:49;;;;;;;12.05;11.25;;;19.60;57.90;;;;;;4972522;28;20412;-79
2022/06/03 06:42:52;;;;;;;11.52;10.73;;;19.50;58.00;;;;;;4955045;28;20046;-79
2022/06/03 06:45:27;;;;;;;11.48;10.55;;;19.40;58.80;;;;;;4970639;28;20038;-78
2022/06/03 06:48:04;;;;;;;11.13;10.38;;;19.40;59.10;;;;;;4933114;29;20043;-79
2022/06/03 06:50:48;;;;;;;11.95;10.90;;;19.50;59.20;;;;;;4963651;28;20043;-79
2022/06/03 06:53:40;;;;;;;12.13;10.00;;;19.60;59.10;;;;;;4964440;28;20042;-79
2022/06/03 06:56:32;;;;;;;10.73;9.93;;;19.60;59.40;;;;;;4947838;28;20541;-79
2022/06/03 06:59:06;;;;;;;11.23;10.13;;;19.70;59.40;;;;;;4950169;29;20059;-79
2022/06/03 07:02:12;;;;;;;10.82;9.85;;;19.80;59.80;;;;;;4948975;28;20047;-79
2022/06/03 07:05:00;;;;;;;10.93;9.93;;;19.80;60.50;;;;;;4927135;29;20050;-79
2022/06/03 07:08:00;;;;;;;10.43;9.73;;;19.90;59.60;;;;;;4950231;28;20043;-79
2022/06/03 07:10:48;;;;;;;10.80;9.45;;;19.90;60.40;;;;;;4963681;28;20042;-79
2022/06/03 07:13:37;;;;;;;12.20;11.10;;;19.90;60.20;;;;;;4931489;28;20035;-79
2022/06/03 07:16:10;;;;;;;11.20;10.05;;;20.00;60.20;;;;;;4985455;28;20043;-79
2022/06/03 07:22:00;;;;;;;11.85;10.80;;;20.00;61.20;;;;;;5013939;28;20033;-79
2022/06/03 07:25:00;;;;;;;11.98;11.18;;;20.10;61.10;;;;;;5017522;28;20052;-79
2022/06/03 07:27:48;;;;;;;10.65;9.95;;;20.10;62.00;;;;;;5032531;28;20041;-79
2022/06/03 07:30:36;;;;;;;11.10;10.07;;;20.10;63.30;;;;;;5030577;28;20045;-79
2022/06/03 07:33:05;;;;;;;10.43;9.43;;;19.70;63.70;;;;;;5029135;28;20044;-79
2022/06/03 07:35:37;;;;;;;10.75;9.85;;;19.30;64.80;;;;;;5024547;28;20487;-79
2022/06/03 07:38:15;;;;;;;10.52;9.40;;;19.30;64.90;;;;;;5024123;28;20041;-79
2022/06/03 07:40:58;;;;;;;9.85;9.18;;;19.20;66.70;;;;;;5024068;28;20034;-79
2022/06/03 07:43:43;;;;;;;14.40;9.32;;;19.20;68.00;;;;;;5028601;28;20491;-79
2022/06/03 07:46:13;;;;;;;10.60;9.60;;;19.10;68.30;;;;;;5021652;28;20479;-79
2022/06/03 07:48:39;;;;;;;12.70;11.05;;;19.00;68.60;;;;;;5051805;28;20387;-79
2022/06/03 07:51:06;;;;;;;14.90;11.27;;;18.80;70.30;;;;;;5048371;28;20226;-79
2022/06/03 07:53:54;;;;;;;11.35;10.27;;;18.60;71.60;;;;;;5043703;28;20028;-79
2022/06/03 07:56:28;;;;;;;13.50;12.15;;;18.50;71.70;;;;;;5043714;28;20017;-79
2022/06/03 07:59:03;;;;;;;12.63;11.73;;;18.40;73.40;;;;;;5043058;28;20515;-79
2022/06/03 08:01:42;;;;;;;10.88;10.05;;;18.40;72.90;;;;;;5035744;28;20045;-79
2022/06/03 08:04:08;;;;;;;10.48;9.57;;;18.40;74.80;;;;;;5012728;28;20387;-79
2022/06/03 08:12:12;;;;;;;9.40;8.70;;;18.40;76.80;;;;;;5037438;28;20068;-79
2022/06/03 08:14:38;;;;;;;10.10;8.10;;;18.40;78.10;;;;;;5030832;28;20045;-78
2022/06/03 08:17:06;;;;;;;10.07;9.10;;;18.30;78.50;;;;;;5028326;28;20078;-78
2022/06/03 08:19:32;;;;;;;12.07;9.20;;;18.30;77.70;;;;;;5026805;28;20415;-78
2022/06/03 08:22:00;;;;;;;11.05;9.98;;;18.30;77.60;;;;;;5028849;28;20033;-78
2022/06/03 08:24:40;;;;;;;10.85;9.77;;;18.30;76.90;;;;;;5013964;28;20649;-78
2022/06/03 08:27:20;;;;;;;10.40;9.30;;;18.50;76.00;;;;;;5029540;28;20033;-78
2022/06/03 08:29:48;;;;;;;10.60;9.65;;;18.50;77.10;;;;;;5026921;28;20049;-78
2022/06/03 08:32:27;;;;;;;11.45;10.05;;;18.30;77.30;;;;;;5027173;28;20483;-78
2022/06/03 08:34:54;;;;;;;11.35;9.52;;;18.10;78.10;;;;;;5014075;28;20042;-78
2022/06/03 08:37:25;;;;;;;10.75;9.70;;;18.10;78.90;;;;;;5028873;28;20018;-78
2022/06/03 08:39:52;;;;;;;;;;;18.20;79.20;;;;;;5014178;28;20099;-78
2022/06/03 08:42:35;;;;;;;11.15;10.00;;;18.30;79.20;;;;;;5028578;28;19912;-78
2022/06/03 08:45:21;;;;;;;11.13;10.10;;;18.20;79.20;;;;;;5008760;28;20049;-78
2022/06/03 08:47:48;;;;;;;10.90;9.80;;;18.20;77.20;;;;;;5046993;28;20051;-78
2022/06/03 08:50:54;;;;;;;10.38;9.48;;;18.00;77.90;;;;;;5025269;28;20032;-79
2022/06/03 08:53:44;;;;;;;10.57;9.80;;;17.90;76.90;;;;;;4990131;28;20373;-78
2022/06/03 08:56:11;;;;;;;11.02;9.95;;;17.90;77.50;;;;;;5006388;28;20404;-78
2022/06/03 08:58:42;;;;;;;10.00;9.00;;;17.80;77.50;;;;;;4992566;28;20045;-78
2022/06/03 09:01:14;;;;;;;10.35;9.40;;;18.00;78.30;;;;;;5005814;28;20582;-78
2022/06/03 09:04:12;;;;;;;10.80;9.88;;;18.00;78.40;;;;;;4989019;28;20041;-78
2022/06/03 09:06:58;;;;;;;11.48;10.63;;;18.10;76.80;;;;;;5009445;28;20049;-78
2022/06/03 09:09:43;;;;;;;11.40;10.30;;;18.10;76.60;;;;;;5008226;28;20400;-78
2022/06/03 09:12:15;;;;;;;11.00;9.98;;;18.10;76.40;;;;;;4992950;28;20042;-78
2022/06/03 09:14:42;;;;;;;10.35;9.63;;;18.20;76.10;;;;;;5007871;28;20165;-79
2022/06/03 09:17:38;;;;;;;12.60;11.05;;;18.30;76.30;;;;;;4987473;28;20045;-78
2022/06/03 09:20:19;;;;;;;10.23;9.43;;;18.30;76.70;;;;;;4974417;28;20046;-79
2022/06/03 09:22:45;;;;;;;10.82;9.90;;;18.50;76.00;;;;;;5005744;28;20527;-78
2022/06/03 09:25:12;;;;;;;10.68;9.75;;;18.60;75.10;;;;;;4974694;28;20069;-78
2022/06/03 09:27:39;;;;;;;10.80;9.82;;;18.70;74.60;;;;;;5010938;28;20038;-78
2022/06/03 09:30:05;;;;;;;9.93;9.27;;;18.80;74.40;;;;;;5047509;28;20112;-78
2022/06/03 09:32:37;;;;;;;11.18;10.10;;;19.00;73.30;;;;;;5005651;28;20040;-78
2022/06/03 09:35:06;;;;;;;11.95;9.65;;;19.00;73.00;;;;;;5006274;28;20029;-78
2022/06/03 09:37:42;;;;;;;10.80;9.70;;;19.10;72.90;;;;;;5010084;28;20479;-79
2022/06/03 09:40:12;;;;;;;16.52;11.02;;;19.20;72.30;;;;;;4995149;28;20188;-78
2022/06/03 09:42:38;;;;;;;10.02;9.13;;;19.30;72.40;;;;;;5005799;28;20037;-79
2022/06/03 09:45:05;;;;;;;10.25;9.35;;;19.40;72.00;;;;;;5004793;28;20030;-78
2022/06/03 09:47:31;;;;;;;10.88;9.68;;;19.40;70.10;;;;;;5021475;28;20033;-79
2022/06/03 09:49:57;;;;;;;10.52;9.73;;;19.40;71.10;;;;;;5005031;28;20484;-79
2022/06/03 09:52:25;;;;;;;9.88;9.02;;;19.40;71.20;;;;;;5026294;28;20041;-79
2022/06/03 09:54:51;;;;;;;11.27;10.27;;;19.40;70.80;;;;;;4994360;28;20040;-79
2022/06/03 09:57:27;;;;;;;9.98;9.20;;;19.50;70.20;;;;;;5027340;28;20032;-79
2022/06/03 10:00:03;;;;;;;13.52;9.45;;;19.60;69.30;;;;;;5021568;28;20041;-79
2022/06/03 10:02:30;;;;;;;10.65;9.70;;;19.50;69.10;;;;;;5023838;28;20037;-79
2022/06/03 10:04:56;;;;;;;9.88;9.02;;;19.40;69.10;;;;;;5024368;28;20026;-79
2022/06/03 10:07:25;;;;;;;10.45;9.60;;;19.40;68.70;;;;;;5027153;28;20025;-78
2022/06/03 10:12:50;;;;;;;11.20;9.73;;;19.50;69.10;;;;;;5014270;28;20041;-79
2022/06/03 10:15:37;;;;;;;10.88;10.07;;;19.50;69.50;;;;;;5042506;28;20041;-79
2022/06/03 10:18:05;;;;;;;9.77;9.07;;;19.70;68.30;;;;;;5033909;28;20407;-79
2022/06/03 10:20:35;;;;;;;13.82;8.98;;;19.80;68.60;;;;;;5047043;28;20387;-79
2022/06/03 10:23:04;;;;;;;10.77;9.88;;;20.00;67.90;;;;;;5047048;28;20435;-79
2022/06/03 10:25:31;;;;;;;10.88;10.18;;;20.10;66.90;;;;;;5046023;28;20037;-79
2022/06/03 10:28:05;;;;;;;13.95;11.65;;;20.00;66.10;;;;;;5048538;28;20041;-79
2022/06/03 10:30:32;;;;;;;12.20;11.30;;;20.10;65.80;;;;;;5048004;28;20041;-79
2022/06/03 10:32:59;;;;;;;12.93;11.63;;;20.10;65.30;;;;;;5041310;28;20033;-79
2022/06/03 10:35:31;;;;;;;13.40;12.30;;;20.20;65.60;;;;;;5046551;28;20041;-79
2022/06/03 10:37:59;;;;;;;12.93;11.65;;;20.20;65.20;;;;;;5040984;28;20037;-79
2022/06/03 10:40:26;;;;;;;12.23;11.23;;;20.30;64.30;;;;;;5045556;28;20491;-79
2022/06/03 10:42:56;;;;;;;12.57;11.77;;;20.40;65.40;;;;;;5048741;28;20044;-79
2022/06/03 10:45:35;;;;;;;14.15;12.95;;;20.50;63.80;;;;;;5047949;28;20380;-79
2022/06/03 10:48:19;;;;;;;14.07;13.07;;;20.60;63.20;;;;;;5041300;28;20037;-79
2022/06/03 10:50:45;;;;;;;14.52;13.52;;;20.70;63.00;;;;;;5046691;28;20025;-79
2022/06/03 11:01:56;;;;;;;15.90;14.68;;;21.00;61.00;;;;;;4994328;28;20053;-79
2022/06/03 11:04:37;;;;;;;16.98;15.85;;;21.20;61.00;;;;;;4973121;28;20452;-79
2022/06/03 11:07:23;;;;;;;16.90;15.80;;;21.40;59.70;;;;;;5007625;28;20509;-79
2022/06/03 11:10:06;;;;;;;16.73;15.73;;;21.60;60.00;;;;;;5008915;28;20045;-79
2022/06/03 11:12:32;;;;;;;15.85;14.85;;;21.70;58.90;;;;;;4996553;28;20030;-79
2022/06/03 11:14:58;;;;;;;18.13;16.92;;;21.80;58.90;;;;;;5009770;28;20488;-80
2022/06/03 11:17:31;;;;;;;17.42;16.33;;;21.90;59.60;;;;;;5010369;28;20034;-79
2022/06/03 11:19:58;;;;;;;18.55;17.55;;;22.40;60.00;;;;;;5010615;28;20046;-80
2022/06/03 11:22:24;;;;;;;20.17;18.98;;;22.80;58.40;;;;;;5010814;28;20038;-80
2022/06/03 11:24:57;;;;;;;19.80;18.80;;;23.30;56.30;;;;;;5011043;28;20172;-80
2022/06/03 11:27:29;;;;;;;16.88;15.98;;;23.40;55.50;;;;;;5010413;28;20038;-80
2022/06/03 11:29:59;;;;;;;18.15;17.23;;;23.40;55.10;;;;;;4993906;28;20052;-80
2022/06/03 11:32:26;;;;;;;18.30;17.30;;;23.50;54.90;;;;;;5009586;28;20026;-80
2022/06/03 11:34:59;;;;;;;18.52;17.52;;;23.70;55.10;;;;;;4994445;28;20041;-80
2022/06/03 11:37:39;;;;;;;20.10;19.00;;;24.00;55.00;;;;;;5048639;28;20025;-80
2022/06/03 11:40:18;;;;;;;20.30;19.20;;;24.30;55.20;;;;;;5032692;28;20041;-80
2022/06/03 11:42:48;;;;;;;20.88;19.77;;;24.60;53.60;;;;;;5032964;28;20499;-80
2022/06/03 11:45:47;;;;;;;19.40;18.40;;;24.60;53.00;;;;;;5049274;28;20545;-80
2022/06/03 11:48:28;;;;;;;19.40;18.40;;;24.60;53.90;;;;;;4998067;28;20419;-80
2022/06/03 11:50:53;;;;;;;;;;;24.80;53.10;;;;;;4975678;28;20058;-80
2022/06/03 11:53:24;;;;;;;19.80;18.70;;;24.70;52.50;;;;;;5007524;28;19916;-80
2022/06/03 11:55:52;;;;;;;19.73;18.63;;;24.60;53.60;;;;;;4993474;28;20045;-80
2022/06/03 11:58:41;;;;;;;20.95;19.90;;;24.60;53.40;;;;;;4993375;28;20025;-80
2022/06/03 12:01:11;;;;;;;20.50;19.40;;;24.70;52.70;;;;;;4993291;28;20416;-80
2022/06/03 12:03:43;;;;;;;21.58;20.30;;;24.80;52.80;;;;;;4987159;28;20491;-80
2022/06/03 12:06:17;;;;;;;18.15;17.17;;;25.00;52.30;;;;;;4994121;28;20038;-80
2022/06/03 12:08:52;;;;;;;21.30;20.10;;;24.70;51.60;;;;;;4992108;28;20670;-80
2022/06/03 12:14:29;;;;;;;21.40;20.30;;;24.90;53.50;;;;;;4996992;28;20061;-81
2022/06/03 12:17:05;;;;;;;25.25;23.98;;;25.30;52.70;;;;;;4993029;28;20395;-81
2022/06/03 12:19:40;;;;;;;20.25;19.15;;;25.30;52.40;;;;;;5006737;28;20050;-81
2022/06/03 12:22:28;;;;;;;19.90;18.80;;;25.30;53.20;;;;;;5007575;28;20525;-81
2022/06/03 12:24:55;;;;;;;21.17;20.08;;;25.30;52.40;;;;;;5007257;28;20068;-81
2022/06/03 12:27:26;;;;;;;20.15;19.05;;;25.40;51.50;;;;;;5049302;28;20031;-81
2022/06/03 12:30:20;;;;;;;22.40;21.30;;;25.50;52.10;;;;;;5043415;28;20032;-81
2022/06/03 12:32:53;;;;;;;23.08;21.67;;;25.70;50.60;;;;;;5042414;28;20033;-81
2022/06/03 12:35:47;;;;;;;22.77;21.27;;;26.00;50.30;;;;;;5043242;28;20021;-81
2022/06/03 12:38:19;;;;;;;22.52;21.10;;;26.00;50.10;;;;;;5050649;28;20024;-81
2022/06/03 12:41:01;;;;;;;22.25;21.00;;;26.10;50.10;;;;;;5048571;28;20037;-81
2022/06/03 12:43:46;;;;;;;24.88;23.58;;;26.00;48.70;;;;;;5047426;28;20030;-81
2022/06/03 12:46:43;;;;;;;19.90;18.90;;;25.90;50.00;;;;;;5031806;28;20385;-81
2022/06/03 12:49:31;;;;;;;21.50;20.40;;;25.80;50.20;;;;;;5030992;28;20391;-81
2022/06/03 12:52:01;;;;;;;21.40;20.30;;;25.80;48.80;;;;;;5050094;28;20036;-81
2022/06/03 12:54:27;;;;;;;20.85;19.70;;;25.90;48.90;;;;;;5049990;28;20048;-81
2022/06/03 12:57:06;;;;;;;22.20;21.00;;;26.00;49.10;;;;;;5042365;28;20025;-81
2022/06/03 12:59:37;;;;;;;21.85;20.75;;;26.00;48.80;;;;;;5026526;28;20526;-81
2022/06/03 13:02:21;;;;;;;22.30;21.00;;;26.00;48.40;;;;;;5042287;28;20033;-81
2022/06/03 13:04:53;;;;;;;25.00;23.80;;;26.10;48.10;;;;;;5032718;28;20039;-81
2022/06/03 13:07:25;;;;;;;25.23;23.92;;;26.20;48.00;;;;;;5048260;28;20025;-81
2022/06/03 13:10:03;;;;;;;26.95;25.52;;;26.20;48.20;;;;;;5049932;28;20043;-80
2022/06/03 13:12:45;;;;;;;27.73;26.33;;;26.20;47.70;;;;;;5046290;28;20064;-81
2022/06/03 13:15:18;;;;;;;26.90;25.58;;;26.20;47.20;;;;;;5050713;28;20059;-81
2022/06/03 13:18:13;;;;;;;27.38;25.90;;;26.10;46.90;;;;;;5049173;28;20502;-81
2022/06/03 13:20:40;;;;;;;25.33;24.02;;;26.20;48.40;;;;;;5049241;28;20049;-81
2022/06/03 13:23:19;;;;;;;29.23;27.77;;;26.20;49.10;;;;;;5041975;28;20491;-81
2022/06/03 13:25:49;;;;;;;28.00;26.60;;;26.40;47.50;;;;;;5047090;28;20447;-81
2022/06/03 13:28:25;;;;;;;;;;;26.40;47.70;;;;;;5031049;28;20403;-81
2022/06/03 13:31:19;;;;;;;25.67;24.38;;;26.50;47.40;;;;;;5049082;28;19912;-80
2022/06/03 13:34:08;;;;;;;26.30;25.00;;;26.60;46.30;;;;;;5049774;28;20037;-81
2022/06/03 13:36:34;;;;;;;26.45;25.05;;;26.60;46.40;;;;;;5037361;28;20064;-81
2022/06/03 13:39:01;;;;;;;26.33;24.92;;;26.70;44.80;;;;;;5048330;28;20056;-81
2022/06/03 13:44:44;;;;;;;28.60;27.10;;;26.50;47.10;;;;;;5049434;28;20044;-81
2022/06/03 13:47:18;;;;;;;29.15;27.35;;;26.30;48.60;;;;;;5046951;28;20040;-81
2022/06/03 13:50:04;;;;;;;28.75;27.25;;;26.60;48.80;;;;;;5047141;28;20033;-81
2022/06/03 13:52:31;;;;;;;25.48;24.17;;;26.80;48.80;;;;;;5046271;28;20057;-81
2022/06/03 13:55:22;;;;;;;28.70;27.05;;;26.90;46.40;;;;;;5047465;28;20029;-81
2022/06/03 13:57:54;;;;;;;27.95;26.50;;;26.70;47.80;;;;;;5027795;28;20036;-81
2022/06/03 14:00:25;;;;;;;27.95;26.55;;;26.50;48.70;;;;;;5047273;28;20033;-81
2022/06/03 14:03:13;;;;;;;28.50;26.90;;;26.50;49.30;;;;;;5041644;28;20039;-81
2022/06/03 14:05:45;;;;;;;27.52;26.17;;;26.70;49.00;;;;;;5041363;28;20059;-81
2022/06/03 14:08:25;;;;;;;26.35;24.98;;;26.80;48.30;;;;;;5041280;28;20017;-81
2022/06/03 14:11:04;;;;;;;26.45;25.15;;;27.00;48.20;;;;;;5041429;28;20037;-81